Time;durP1;ratioP1;P1;durP2;ratioP2;P2;SDS_P1;SDS_P2;PMS_P1;PMS_P2;Temp;Humidity;BMP_temperature;BMP_pressure;BME280_temperature;BME280_humidity;BME280_pressure;Samples;Min_cycle;Max_cycle;Signal;HPM_P1;HPM_P2
2023/01/26 00:01:44;;;;;;;12.27;8.93;;;5.50;99.90;;;;;;5051741;28;20168;-48
2023/01/26 00:04:10;;;;;;;11.23;8.80;;;5.50;99.90;;;;;;5050422;28;20178;-47
2023/01/26 00:06:36;;;;;;;12.77;9.57;;;5.50;99.90;;;;;;5051282;28;20182;-48
2023/01/26 00:09:02;;;;;;;11.70;9.23;;;5.50;99.90;;;;;;5051357;28;20171;-48
2023/01/26 00:11:29;;;;;;;12.47;9.30;;;5.50;99.90;;;;;;5051466;28;20202;-48
2023/01/26 00:13:59;;;;;;;11.97;9.07;;;5.50;99.90;;;;;;5051578;28;20654;-47
2023/01/26 00:16:26;;;;;;;10.80;8.37;;;5.50;99.90;;;;;;5051029;28;20174;-44
2023/01/26 00:18:52;;;;;;;12.67;9.57;;;5.50;99.90;;;;;;5050236;28;20202;-51
2023/01/26 00:21:20;;;;;;;11.83;9.47;;;5.50;99.90;;;;;;5050680;28;20175;-47
2023/01/26 00:23:47;;;;;;;11.40;8.97;;;5.50;99.90;;;;;;5051299;28;20185;-48
2023/01/26 00:26:15;;;;;;;11.93;9.27;;;5.50;99.90;;;;;;5051263;28;20170;-47
2023/01/26 00:28:40;;;;;;;12.17;8.60;;;5.50;99.90;;;;;;5049626;28;20233;-48
2023/01/26 00:31:14;;;;;;;12.00;9.20;;;5.50;99.90;;;;;;5038321;28;20595;-48
2023/01/26 00:33:40;;;;;;;10.97;8.40;;;5.50;99.90;;;;;;5031396;28;20176;-49
2023/01/26 00:36:06;;;;;;;10.57;8.50;;;5.50;99.90;;;;;;5031191;28;20179;-49
2023/01/26 00:38:31;;;;;;;11.90;9.37;;;5.50;99.90;;;;;;5031546;28;20219;-50
2023/01/26 00:40:57;;;;;;;12.60;9.70;;;5.50;99.90;;;;;;5031542;28;20240;-51
2023/01/26 00:43:23;;;;;;;11.07;8.33;;;5.50;99.90;;;;;;5031362;28;20234;-45
2023/01/26 00:45:48;;;;;;;10.67;8.60;;;5.50;99.90;;;;;;5031235;28;20171;-49
2023/01/26 00:48:14;;;;;;;11.37;8.93;;;5.50;99.90;;;;;;5030845;28;20750;-50
2023/01/26 00:50:40;;;;;;;12.97;9.13;;;6.30;99.90;;;;;;5038215;28;20221;-48
2023/01/26 00:53:05;;;;;;;11.40;9.23;;;5.50;99.90;;;;;;5042770;28;20250;-51
2023/01/26 00:55:31;;;;;;;11.43;9.17;;;5.40;99.90;;;;;;5051019;28;20168;-48
2023/01/26 00:58:01;;;;;;;12.57;9.13;;;5.50;99.90;;;;;;5050699;28;20644;-52
2023/01/26 01:00:27;;;;;;;10.67;8.67;;;5.50;99.90;;;;;;5051190;28;20266;-48
2023/01/26 01:02:55;;;;;;;12.37;9.37;;;5.40;99.90;;;;;;5051149;28;20250;-48
2023/01/26 01:05:21;;;;;;;13.30;9.57;;;5.40;99.90;;;;;;5050845;28;20167;-51
2023/01/26 01:07:47;;;;;;;12.47;9.10;;;5.40;99.90;;;;;;5050813;28;20202;-48
2023/01/26 01:10:12;;;;;;;12.10;9.27;;;5.40;99.90;;;;;;5050949;28;20198;-48
2023/01/26 01:12:38;;;;;;;12.33;9.40;;;5.40;99.90;;;;;;5050926;28;20308;-49
2023/01/26 01:15:04;;;;;;;11.00;8.17;;;5.40;99.90;;;;;;5050877;28;20168;-46
2023/01/26 01:17:29;;;;;;;10.60;8.53;;;5.40;99.90;;;;;;5050559;28;20187;-48
2023/01/26 01:19:55;;;;;;;14.47;10.20;;;5.40;99.90;;;;;;5050778;28;20297;-50
2023/01/26 01:22:20;;;;;;;12.00;9.03;;;5.40;99.90;;;;;;5050974;28;20203;-47
2023/01/26 01:24:46;;;;;;;11.70;8.97;;;5.40;99.90;;;;;;5050800;28;20272;-48
2023/01/26 01:27:12;;;;;;;12.37;9.00;;;5.40;99.90;;;;;;5050590;28;20613;-52
2023/01/26 01:29:37;;;;;;;12.57;9.47;;;5.40;99.90;;;;;;5050616;28;20606;-48
2023/01/26 01:32:03;;;;;;;11.73;8.87;;;5.40;99.90;;;;;;5052025;28;20539;-48
2023/01/26 01:34:29;;;;;;;13.37;9.77;;;5.40;99.90;;;;;;5054294;28;20202;-50
2023/01/26 01:36:54;;;;;;;12.30;8.93;;;5.40;99.90;;;;;;5054092;28;20198;-51
2023/01/26 01:39:20;;;;;;;11.33;9.23;;;5.40;99.90;;;;;;5054439;28;20266;-49
2023/01/26 01:41:45;;;;;;;11.40;8.73;;;5.40;99.90;;;;;;5054335;28;20175;-47
2023/01/26 01:44:22;;;;;;;13.80;9.10;;;5.40;99.90;;;;;;5054337;28;20172;-50
2023/01/26 01:46:52;;;;;;;12.90;9.30;;;5.40;99.90;;;;;;5054073;28;20202;-48
2023/01/26 01:49:29;;;;;;;11.73;8.63;;;5.40;99.90;;;;;;5054094;28;20217;-50
2023/01/26 01:52:17;;;;;;;11.03;8.20;;;5.40;99.90;;;;;;5054344;28;20171;-48
2023/01/26 01:54:54;;;;;;;12.57;9.47;;;5.50;99.90;;;;;;5054082;28;20229;-48
2023/01/26 01:57:28;;;;;;;12.13;9.53;;;5.50;99.90;;;;;;5053749;28;20198;-46
2023/01/26 02:00:01;;;;;;;11.23;9.10;;;5.40;99.90;;;;;;5052765;28;20546;-49
2023/01/26 02:02:27;;;;;;;13.23;9.17;;;5.10;99.90;;;;;;5053912;28;20292;-48
2023/01/26 02:04:56;;;;;;;10.83;8.40;;;5.50;99.90;;;;;;5053893;28;20266;-46
2023/01/26 02:07:23;;;;;;;13.63;9.50;;;5.30;99.90;;;;;;5053592;28;20202;-48
2023/01/26 02:12:35;;;;;;;12.23;8.67;;;5.50;99.90;;;;;;5041906;28;20726;-46
2023/01/26 02:15:02;;;;;;;11.83;8.60;;;;;;;;;;5052166;28;20203;-50
2023/01/26 02:17:27;;;;;;;11.80;9.17;;;5.50;99.90;;;;;;5053159;28;20196;-49
2023/01/26 02:20:09;;;;;;;12.73;9.20;;;5.50;99.90;;;;;;5053564;28;20206;-46
2023/01/26 02:23:05;;;;;;;12.73;9.47;;;5.50;99.90;;;;;;5053526;28;20205;-48
2023/01/26 02:25:34;;;;;;;12.87;9.03;;;5.50;99.90;;;;;;5053202;28;20216;-48
2023/01/26 02:28:00;;;;;;;11.90;9.50;;;5.50;99.90;;;;;;5052814;28;20240;-48
2023/01/26 02:30:28;;;;;;;10.43;8.17;;;5.50;99.90;;;;;;5053293;28;20211;-48
2023/01/26 02:32:54;;;;;;;13.00;8.87;;;5.60;99.90;;;;;;5053213;28;20209;-47
2023/01/26 02:35:19;;;;;;;11.57;8.93;;;5.50;99.90;;;;;;5053276;28;20167;-48
2023/01/26 02:37:45;;;;;;;13.10;9.53;;;5.50;99.90;;;;;;5052841;28;20247;-48
2023/01/26 02:40:34;;;;;;;11.30;8.70;;;5.50;99.90;;;;;;5053106;28;20252;-48
2023/01/26 02:43:01;;;;;;;11.53;8.87;;;5.50;99.90;;;;;;5052881;28;20301;-48
2023/01/26 02:45:28;;;;;;;10.93;8.40;;;5.50;99.90;;;;;;5052583;28;20235;-49
2023/01/26 02:47:54;;;;;;;11.77;8.87;;;5.50;99.90;;;;;;5052620;28;20663;-50
2023/01/26 02:50:19;;;;;;;13.17;9.37;;;5.50;99.90;;;;;;5052884;28;20290;-49
2023/01/26 02:52:45;;;;;;;11.13;8.80;;;5.50;99.90;;;;;;5052976;28;20171;-50
2023/01/26 02:55:27;;;;;;;11.93;9.10;;;5.50;99.90;;;;;;5052928;28;20670;-49
2023/01/26 02:57:57;;;;;;;12.27;9.27;;;5.50;99.90;;;;;;5052444;28;20190;-47
2023/01/26 03:00:26;;;;;;;11.33;8.83;;;5.50;99.90;;;;;;5052905;28;20175;-48
2023/01/26 03:02:54;;;;;;;11.73;8.57;;;5.50;99.90;;;;;;5052799;28;20210;-49
2023/01/26 03:05:20;;;;;;;12.23;9.80;;;5.50;99.90;;;;;;5052797;28;20179;-48
2023/01/26 03:07:45;;;;;;;13.17;9.90;;;5.50;99.90;;;;;;5052297;28;20195;-50
2023/01/26 03:10:11;;;;;;;13.20;9.53;;;5.50;99.90;;;;;;5052533;28;20317;-50
2023/01/26 03:12:37;;;;;;;11.87;9.27;;;5.50;99.90;;;;;;5052420;28;20203;-50
2023/01/26 03:17:48;;;;;;;12.37;9.60;;;5.50;99.90;;;;;;5052181;28;20241;-48
2023/01/26 03:28:25;;;;;;;12.27;9.70;;;5.40;99.90;;;;;;5052240;28;20209;-44
2023/01/26 03:30:54;;;;;;;12.17;9.23;;;5.40;99.90;;;;;;5052029;28;20679;-44
2023/01/26 03:33:20;;;;;;;11.90;9.17;;;5.40;99.90;;;;;;5052060;28;20586;-50
2023/01/26 03:35:46;;;;;;;10.77;8.27;;;5.50;99.90;;;;;;5052154;28;20179;-48
2023/01/26 03:38:11;;;;;;;12.17;9.37;;;5.50;99.90;;;;;;5053049;28;20191;-47
2023/01/26 03:57:04;;;;;;;13.00;9.57;;;5.30;99.90;;;;;;5051085;28;20657;-47
2023/01/26 03:59:38;;;;;;;12.13;9.00;;;5.30;99.90;;;;;;5050409;28;20202;-46
2023/01/26 04:10:20;;;;;;;13.67;10.13;;;5.20;99.90;;;;;;5051739;28;20240;-51
2023/01/26 04:23:44;;;;;;;12.17;8.93;;;5.30;99.90;;;;;;5051736;28;20236;-49
2023/01/26 04:26:09;;;;;;;11.57;9.13;;;5.40;99.90;;;;;;5051520;28;20176;-46
2023/01/26 04:28:35;;;;;;;11.77;8.97;;;5.40;99.90;;;;;;5051132;28;20191;-50
2023/01/26 04:31:03;;;;;;;12.17;9.10;;;5.40;99.90;;;;;;5051260;28;20298;-51
2023/01/26 04:33:29;;;;;;;12.73;9.23;;;5.40;99.90;;;;;;5051373;28;20229;-49
2023/01/26 04:35:54;;;;;;;13.23;9.63;;;5.40;99.90;;;;;;5051285;28;20205;-48
2023/01/26 04:38:20;;;;;;;11.67;8.87;;;5.40;99.90;;;;;;5050912;28;20187;-48
2023/01/26 04:40:52;;;;;;;14.03;9.70;;;5.20;99.90;;;;;;5051171;28;20182;-47
2023/01/26 04:43:18;;;;;;;13.70;10.33;;;;;;;;;;5051275;28;20167;-52
2023/01/26 04:45:44;;;;;;;14.20;9.57;;;5.20;99.90;;;;;;5051214;28;20183;-49
2023/01/26 04:48:09;;;;;;;12.77;10.17;;;5.30;99.90;;;;;;5050799;28;20191;-48
2023/01/26 04:50:35;;;;;;;12.80;9.03;;;5.40;99.90;;;;;;5051053;28;20566;-49
2023/01/26 04:53:00;;;;;;;16.07;11.73;;;5.50;99.90;;;;;;5051181;28;20179;-49
2023/01/26 04:55:26;;;;;;;12.80;9.50;;;5.50;99.90;;;;;;5051143;28;20271;-48
2023/01/26 04:57:51;;;;;;;13.63;10.00;;;5.30;99.90;;;;;;5050704;28;20226;-50
2023/01/26 05:00:17;;;;;;;14.70;10.73;;;;;;;;;;5051080;28;20229;-48
2023/01/26 05:02:43;;;;;;;13.67;10.43;;;5.40;99.90;;;;;;5050958;28;20237;-49
2023/01/26 05:05:08;;;;;;;13.60;9.50;;;5.30;99.90;;;;;;5051010;28;20551;-45
2023/01/26 05:07:34;;;;;;;14.70;10.43;;;5.20;99.90;;;;;;5052536;28;20199;-49
2023/01/26 05:09:59;;;;;;;14.07;9.73;;;5.10;99.90;;;;;;5054734;28;20233;-51
2023/01/26 05:12:34;;;;;;;14.83;9.73;;;5.00;99.90;;;;;;5054913;28;20175;-46
2023/01/26 05:15:00;;;;;;;13.27;9.90;;;4.80;99.90;;;;;;5054766;28;20577;-48
2023/01/26 05:17:25;;;;;;;14.60;10.53;;;5.10;99.90;;;;;;5054347;28;20195;-47
2023/01/26 05:19:51;;;;;;;13.80;9.57;;;4.70;99.90;;;;;;5054525;28;20175;-50
2023/01/26 05:22:16;;;;;;;12.43;9.87;;;4.90;99.90;;;;;;5054633;28;20692;-51
2023/01/26 05:24:42;;;;;;;14.33;10.13;;;5.10;99.90;;;;;;5046358;28;20191;-49
2023/01/26 05:27:19;;;;;;;14.67;10.30;;;4.90;99.90;;;;;;5053541;28;20238;-50
2023/01/26 05:29:45;;;;;;;16.00;9.80;;;5.40;99.90;;;;;;5054212;28;20293;-50
2023/01/26 05:32:11;;;;;;;13.70;9.17;;;;;;;;;;5053177;28;20535;-49
2023/01/26 05:34:37;;;;;;;13.50;9.67;;;5.30;99.90;;;;;;5054454;28;20183;-48
2023/01/26 05:37:02;;;;;;;13.17;9.53;;;5.30;99.90;;;;;;5054072;28;20195;-47
2023/01/26 05:39:28;;;;;;;13.90;10.67;;;5.20;99.90;;;;;;5054283;28;20182;-45
2023/01/26 05:41:56;;;;;;;14.93;11.17;;;5.20;99.90;;;;;;5054328;28;20171;-49
2023/01/26 05:44:23;;;;;;;14.33;10.73;;;5.20;99.90;;;;;;5052893;28;20187;-50
2023/01/26 05:46:50;;;;;;;14.43;10.63;;;4.50;99.90;;;;;;5053716;28;20197;-49
2023/01/26 05:49:15;;;;;;;14.00;10.33;;;5.30;99.90;;;;;;5054007;28;20175;-46
2023/01/26 05:51:41;;;;;;;14.57;11.13;;;5.20;99.90;;;;;;5054091;28;20289;-49
2023/01/26 05:54:06;;;;;;;13.67;10.10;;;5.30;99.90;;;;;;5053985;28;20179;-48
2023/01/26 05:56:32;;;;;;;14.87;11.37;;;5.20;99.90;;;;;;5052533;28;20171;-49
2023/01/26 05:58:58;;;;;;;13.17;10.27;;;5.30;99.90;;;;;;5053650;28;20198;-50
2023/01/26 06:01:23;;;;;;;14.80;11.03;;;7.20;99.90;;;;;;5053780;28;20174;-45
2023/01/26 06:03:49;;;;;;;14.67;10.80;;;5.30;99.90;;;;;;5054245;28;20171;-50
2023/01/26 06:06:14;;;;;;;14.67;11.17;;;5.20;99.90;;;;;;5053965;28;20692;-49
2023/01/26 06:08:40;;;;;;;12.90;10.20;;;5.30;99.90;;;;;;5053492;28;20338;-49
2023/01/26 06:11:05;;;;;;;14.93;10.80;;;5.30;99.90;;;;;;5053682;28;20747;-48
2023/01/26 06:13:31;;;;;;;14.73;10.20;;;5.30;99.90;;;;;;5053607;28;20217;-48
2023/01/26 06:16:00;;;;;;;14.03;10.57;;;5.30;99.90;;;;;;5053454;28;20202;-49
2023/01/26 06:18:26;;;;;;;14.83;10.27;;;5.30;99.90;;;;;;5052471;28;20688;-49
2023/01/26 06:20:51;;;;;;;15.30;10.97;;;5.30;99.90;;;;;;5053620;28;20186;-49
2023/01/26 06:23:17;;;;;;;14.37;10.70;;;5.20;99.90;;;;;;5053622;28;20179;-48
2023/01/26 06:25:42;;;;;;;13.53;10.47;;;5.00;99.90;;;;;;5053643;28;20769;-52
2023/01/26 06:28:08;;;;;;;16.60;10.83;;;4.80;99.90;;;;;;5052876;28;20206;-49
2023/01/26 06:30:33;;;;;;;14.10;10.87;;;4.80;99.90;;;;;;5053222;28;20211;-50
2023/01/26 06:32:59;;;;;;;13.77;10.40;;;4.80;99.90;;;;;;5053178;28;20266;-48
2023/01/26 06:35:25;;;;;;;15.30;11.40;;;4.80;99.90;;;;;;5053031;28;20171;-48
2023/01/26 06:37:51;;;;;;;14.80;11.40;;;4.90;99.90;;;;;;5052697;28;20234;-45
2023/01/26 06:40:18;;;;;;;14.77;11.33;;;4.90;99.90;;;;;;5053118;28;20189;-46
2023/01/26 06:42:50;;;;;;;14.73;11.10;;;4.90;99.90;;;;;;5052819;28;20317;-52
2023/01/26 06:45:19;;;;;;;15.27;11.73;;;4.90;99.90;;;;;;5048739;28;20581;-50
2023/01/26 06:47:49;;;;;;;17.90;12.43;;;5.00;99.90;;;;;;5048699;28;20198;-49
2023/01/26 06:50:18;;;;;;;16.50;12.27;;;5.00;99.90;;;;;;5053062;28;20210;-48
2023/01/26 06:52:50;;;;;;;16.60;12.13;;;5.00;99.90;;;;;;5051525;28;20177;-50
2023/01/26 06:55:21;;;;;;;18.00;12.17;;;5.00;99.90;;;;;;5052690;28;20721;-51
2023/01/26 06:57:47;;;;;;;19.13;14.67;;;5.10;99.90;;;;;;5052392;28;20201;-48
2023/01/26 07:00:13;;;;;;;18.93;14.80;;;5.10;99.90;;;;;;5052790;28;20581;-51
2023/01/26 07:02:38;;;;;;;18.10;13.23;;;5.10;99.90;;;;;;5052759;28;20213;-49
2023/01/26 07:05:04;;;;;;;17.87;12.57;;;5.10;99.90;;;;;;5052818;28;20798;-49
2023/01/26 07:07:30;;;;;;;17.30;12.27;;;5.10;99.90;;;;;;5052344;28;20646;-48
2023/01/26 07:09:56;;;;;;;16.73;11.67;;;5.00;99.90;;;;;;5052540;28;20199;-47
2023/01/26 07:12:21;;;;;;;16.23;11.83;;;4.90;99.90;;;;;;5052502;28;20268;-52
2023/01/26 07:14:47;;;;;;;17.73;12.50;;;5.10;99.90;;;;;;5052465;28;20199;-49
2023/01/26 07:17:12;;;;;;;18.47;13.47;;;5.00;99.90;;;;;;5037769;28;20196;-51
2023/01/26 07:19:38;;;;;;;19.77;13.93;;;;;;;;;;5034484;28;20187;-48
2023/01/26 07:22:04;;;;;;;15.93;11.47;;;4.90;99.90;;;;;;5042489;28;20183;-49
2023/01/26 07:24:30;;;;;;;20.10;13.40;;;;;;;;;;5043692;28;20190;-51
2023/01/26 07:26:57;;;;;;;18.13;12.47;;;;;;;;;;5041446;28;20208;-48
2023/01/26 07:29:23;;;;;;;18.53;12.53;;;;;;;;;;5037455;28;20302;-48
2023/01/26 07:31:49;;;;;;;17.97;13.00;;;4.70;99.90;;;;;;5029617;28;20254;-48
2023/01/26 07:34:14;;;;;;;15.47;11.30;;;4.80;99.90;;;;;;5013660;28;20234;-50
2023/01/26 07:36:40;;;;;;;17.00;12.73;;;;;;;;;;5040774;28;20644;-47
2023/01/26 07:39:06;;;;;;;16.10;11.60;;;4.70;99.90;;;;;;5032543;28;20182;-48
2023/01/26 07:41:32;;;;;;;16.07;11.50;;;4.90;99.90;;;;;;5016441;28;20879;-48
2023/01/26 07:43:57;;;;;;;15.27;11.83;;;4.90;99.90;;;;;;5028677;28;20677;-50
2023/01/26 07:46:23;;;;;;;16.07;11.77;;;4.90;99.90;;;;;;5031115;28;20230;-46
2023/01/26 07:48:49;;;;;;;17.63;12.80;;;5.00;99.90;;;;;;5018280;28;20188;-50
2023/01/26 07:51:15;;;;;;;15.27;11.60;;;5.00;99.90;;;;;;5019934;28;20207;-48
2023/01/26 07:53:42;;;;;;;17.17;12.43;;;5.10;99.90;;;;;;5021286;28;20192;-45
2023/01/26 07:56:15;;;;;;;18.07;11.77;;;5.20;99.90;;;;;;5021663;28;20183;-47
2023/01/26 07:58:41;;;;;;;18.03;12.50;;;5.20;99.90;;;;;;5023794;28;20261;-48
2023/01/26 08:01:10;;;;;;;16.90;12.33;;;5.00;99.90;;;;;;5038957;28;20648;-47
2023/01/26 08:03:36;;;;;;;17.37;11.63;;;5.30;99.90;;;;;;5037668;28;20179;-47
2023/01/26 08:06:02;;;;;;;16.07;11.73;;;5.00;99.90;;;;;;5033073;28;20179;-47
2023/01/26 08:08:27;;;;;;;15.67;11.13;;;5.20;99.90;;;;;;5018563;28;20208;-48
2023/01/26 08:10:57;;;;;;;15.60;11.50;;;5.20;99.90;;;;;;5017690;28;20298;-46
2023/01/26 08:13:23;;;;;;;18.50;11.70;;;;;;;;;;5030921;28;20183;-49
2023/01/26 08:15:50;;;;;;;16.77;11.47;;;5.30;99.90;;;;;;5030885;28;20184;-46
2023/01/26 08:18:15;;;;;;;15.87;11.03;;;5.30;99.90;;;;;;5030702;28;20357;-47
2023/01/26 08:20:47;;;;;;;16.43;11.30;;;5.20;99.90;;;;;;5031078;28;20184;-46
2023/01/26 08:23:13;;;;;;;18.33;12.40;;;;;;;;;;5031206;28;20168;-45
2023/01/26 08:25:39;;;;;;;17.03;11.83;;;;;;;;;;5031389;28;20172;-47
2023/01/26 08:28:05;;;;;;;17.80;12.23;;;5.30;99.90;;;;;;5030825;28;20324;-46
2023/01/26 08:30:30;;;;;;;16.37;11.37;;;5.00;99.90;;;;;;5030960;28;20212;-49
2023/01/26 08:32:56;;;;;;;16.40;11.83;;;5.20;99.90;;;;;;5031509;28;20187;-45
2023/01/26 08:35:22;;;;;;;18.13;11.83;;;5.30;99.90;;;;;;5031539;28;20711;-47
2023/01/26 08:37:47;;;;;;;17.00;11.70;;;5.10;99.90;;;;;;5030875;28;20331;-48
2023/01/26 08:40:13;;;;;;;16.77;12.27;;;;;;;;;;5031193;28;20184;-50
2023/01/26 08:42:39;;;;;;;16.80;12.37;;;;;;;;;;5033515;28;20680;-50
2023/01/26 08:45:05;;;;;;;20.50;13.53;;;;;;;;;;5035179;28;20175;-49
2023/01/26 08:47:31;;;;;;;32.67;20.60;;;;;;;;;;5034786;28;20211;-49
2023/01/26 08:49:57;;;;;;;22.40;14.53;;;;;;;;;;5035010;28;20249;-49
2023/01/26 08:52:23;;;;;;;15.30;10.87;;;5.00;99.90;;;;;;5035040;28;20861;-47
2023/01/26 08:54:49;;;;;;;15.00;10.77;;;;;;;;;;5035116;28;20178;-47
2023/01/26 08:57:15;;;;;;;17.30;13.13;;;;;;;;;;5034724;28;20606;-47
2023/01/26 08:59:41;;;;;;;19.80;14.90;;;;;;;;;;5035147;28;20270;-48
2023/01/26 09:02:09;;;;;;;16.80;11.10;;;;;;;;;;5034972;28;20282;-49
2023/01/26 09:04:35;;;;;;;14.47;10.17;;;;;;;;;;5034994;28;20279;-48
2023/01/26 09:07:01;;;;;;;16.63;11.47;;;5.10;99.90;;;;;;5034902;28;20196;-48
2023/01/26 09:09:27;;;;;;;13.67;9.77;;;;;;;;;;5031979;28;20194;-51
2023/01/26 09:11:56;;;;;;;11.87;8.83;;;5.00;99.90;;;;;;5032936;28;20204;-48
2023/01/26 09:14:22;;;;;;;13.87;9.50;;;5.70;99.90;;;;;;5033645;28;20517;-51
2023/01/26 09:16:48;;;;;;;12.77;9.73;;;;;;;;;;5034597;28;20579;-47
2023/01/26 09:19:14;;;;;;;11.20;8.83;;;;;;;;;;5034396;28;20175;-47
2023/01/26 09:21:40;;;;;;;12.40;8.83;;;;;;;;;;5034593;28;20184;-47
2023/01/26 09:24:07;;;;;;;14.37;10.43;;;;;;;;;;5034693;28;20590;-47
2023/01/26 09:26:32;;;;;;;15.57;10.97;;;;;;;;;;5034187;28;20674;-52
2023/01/26 09:28:58;;;;;;;15.70;10.73;;;;;;;;;;5034292;28;20207;-47
2023/01/26 09:31:24;;;;;;;17.70;10.53;;;;;;;;;;5034385;28;20230;-49
2023/01/26 09:33:50;;;;;;;15.23;11.10;;;4.90;99.90;;;;;;5034357;28;20179;-48
2023/01/26 09:36:17;;;;;;;15.13;11.13;;;5.30;99.90;;;;;;5034139;28;20273;-47
2023/01/26 09:38:43;;;;;;;14.70;10.60;;;;;;;;;;5033888;28;20195;-48
2023/01/26 09:41:35;;;;;;;15.67;10.73;;;5.20;99.90;;;;;;5034363;28;20201;-50
2023/01/26 09:44:07;;;;;;;14.43;10.73;;;;;;;;;;5034158;28;20583;-48
2023/01/26 09:46:36;;;;;;;14.13;10.23;;;;;;;;;;5033959;28;20180;-51
2023/01/26 09:49:06;;;;;;;15.40;10.90;;;;;;;;;;5033903;28;20637;-47
2023/01/26 09:51:38;;;;;;;12.63;9.33;;;4.90;99.90;;;;;;5033837;28;20203;-47
2023/01/26 09:54:20;;;;;;;13.53;9.50;;;;;;;;;;5034033;28;20176;-48
2023/01/26 09:56:46;;;;;;;15.10;10.67;;;;;;;;;;5033588;28;20191;-48
2023/01/26 09:59:30;;;;;;;14.67;10.53;;;;;;;;;;5032975;28;20183;-49
2023/01/26 10:01:56;;;;;;;15.03;10.40;;;;;;;;;;5014126;28;20697;-48
2023/01/26 10:04:32;;;;;;;17.20;11.77;;;;;;;;;;5014054;28;20263;-48
2023/01/26 10:06:59;;;;;;;15.73;11.33;;;;;;;;;;5013603;28;20631;-50
2023/01/26 10:09:32;;;;;;;14.27;9.33;;;5.40;99.90;;;;;;5013911;28;20592;-48
2023/01/26 10:12:01;;;;;;;15.63;10.40;;;5.50;99.90;;;;;;5014006;28;20172;-49
2023/01/26 10:14:42;;;;;;;14.13;9.90;;;;;;;;;;5013882;28;20263;-52
2023/01/26 10:17:21;;;;;;;13.93;9.40;;;;;;;;;;5013340;28;20836;-47
2023/01/26 10:20:02;;;;;;;13.43;9.73;;;;;;;;;;5013624;28;20618;-52
2023/01/26 10:22:36;;;;;;;14.57;10.00;;;;;;;;;;5013676;28;20176;-48
2023/01/26 10:25:02;;;;;;;13.70;9.60;;;;;;;;;;5013911;28;20184;-46
2023/01/26 10:27:28;;;;;;;17.53;11.17;;;4.50;99.90;;;;;;5020785;28;20282;-48
2023/01/26 10:29:54;;;;;;;15.47;10.30;;;;;;;;;;5032763;28;20634;-47
2023/01/26 10:32:20;;;;;;;15.63;10.80;;;;;;;;;;5030474;28;20238;-49
2023/01/26 10:34:48;;;;;;;17.07;10.93;;;;;;;;;;5033265;28;20204;-49
2023/01/26 10:37:21;;;;;;;16.57;10.93;;;;;;;;;;5032967;28;20196;-47
2023/01/26 10:40:09;;;;;;;15.97;10.93;;;;;;;;;;5033238;28;20176;-48
2023/01/26 10:42:36;;;;;;;16.07;10.80;;;4.60;99.90;;;;;;5032940;28;20172;-50
2023/01/26 10:45:24;;;;;;;15.87;10.93;;;4.50;99.90;;;;;;5031266;28;20183;-48
2023/01/26 10:48:15;;;;;;;12.77;9.30;;;4.30;99.90;;;;;;5019813;28;20207;-46
2023/01/26 10:50:41;;;;;;;13.37;10.00;;;;;;;;;;5032893;28;20215;-52
2023/01/26 10:53:19;;;;;;;14.03;9.97;;;4.40;99.90;;;;;;5033130;28;20544;-49
2023/01/26 10:55:57;;;;;;;14.23;10.00;;;;;;;;;;5032895;28;20167;-47
2023/01/26 10:58:42;;;;;;;13.40;9.60;;;;;;;;;;5032570;28;20203;-49
2023/01/26 11:01:11;;;;;;;13.87;9.80;;;;;;;;;;5032857;28;20540;-50
2023/01/26 11:03:37;;;;;;;15.37;10.57;;;5.40;99.90;;;;;;5032611;28;20176;-49
2023/01/26 11:06:27;;;;;;;14.57;10.57;;;5.20;99.90;;;;;;5032139;28;20171;-47
2023/01/26 11:08:52;;;;;;;18.60;11.33;;;5.30;99.90;;;;;;5032208;28;20188;-49
2023/01/26 11:11:25;;;;;;;15.13;10.40;;;;;;;;;;5032348;28;20706;-51
2023/01/26 11:14:15;;;;;;;14.20;10.23;;;5.50;99.90;;;;;;5032305;28;20174;-48
2023/01/26 11:16:47;;;;;;;14.20;10.10;;;;;;;;;;5032233;28;20176;-51
2023/01/26 11:19:28;;;;;;;14.43;10.87;;;5.40;99.90;;;;;;5032065;28;20671;-50
2023/01/26 11:22:12;;;;;;;15.03;10.50;;;5.40;99.90;;;;;;5032384;28;20214;-48
2023/01/26 11:25:01;;;;;;;14.97;10.63;;;;;;;;;;5032420;28;20168;-52
2023/01/26 11:27:40;;;;;;;16.33;10.47;;;;;;;;;;5028807;28;20695;-49
2023/01/26 11:30:23;;;;;;;13.57;10.00;;;5.20;99.90;;;;;;5032073;28;20261;-48
2023/01/26 11:33:00;;;;;;;15.33;11.20;;;5.10;99.90;;;;;;5032332;28;20172;-48
2023/01/26 11:35:34;;;;;;;16.13;11.23;;;4.90;99.90;;;;;;5032010;28;20176;-48
2023/01/26 11:38:08;;;;;;;13.53;10.47;;;5.10;99.90;;;;;;5031824;28;20187;-47
2023/01/26 11:40:50;;;;;;;14.83;10.40;;;5.00;99.90;;;;;;5032040;28;20172;-50
2023/01/26 11:43:38;;;;;;;15.70;10.20;;;4.80;99.90;;;;;;5032013;28;20207;-49
2023/01/26 11:46:36;;;;;;;13.50;9.90;;;5.10;99.90;;;;;;5029992;28;20219;-52
2023/01/26 11:49:16;;;;;;;14.77;10.73;;;5.00;99.90;;;;;;4988799;28;20301;-47
2023/01/26 11:52:07;;;;;;;14.43;9.87;;;5.10;99.90;;;;;;4990245;28;20645;-49
2023/01/26 11:54:34;;;;;;;13.43;10.00;;;;;;;;;;4990109;28;20264;-52
2023/01/26 11:57:19;;;;;;;16.23;10.63;;;;;;;;;;4989601;28;20208;-49
2023/01/26 11:59:51;;;;;;;16.13;10.77;;;4.70;99.90;;;;;;4989876;28;20192;-47
2023/01/26 12:02:30;;;;;;;14.90;10.40;;;4.70;99.90;;;;;;4973621;28;20189;-49
2023/01/26 12:04:59;;;;;;;14.30;9.87;;;;;;;;;;4989944;28;20191;-49
2023/01/26 12:07:53;;;;;;;16.13;10.73;;;;;;;;;;4989693;28;20189;-49
2023/01/26 12:10:38;;;;;;;15.83;10.60;;;5.00;99.90;;;;;;4985147;28;20205;-48
2023/01/26 12:13:19;;;;;;;17.20;12.00;;;5.40;99.90;;;;;;4987992;28;20227;-48
2023/01/26 12:15:54;;;;;;;14.40;10.13;;;4.90;99.90;;;;;;4989787;28;20173;-48
2023/01/26 12:18:24;;;;;;;14.90;10.87;;;4.60;99.90;;;;;;4988676;28;20220;-49
2023/01/26 12:21:02;;;;;;;14.87;9.90;;;4.80;99.90;;;;;;4987830;28;20261;-50
2023/01/26 12:24:19;;;;;;;15.03;10.20;;;4.70;99.90;;;;;;4986011;28;20224;-48
2023/01/26 12:26:48;;;;;;;14.07;10.13;;;4.60;99.90;;;;;;5012707;28;20762;-48
2023/01/26 12:29:22;;;;;;;13.67;10.00;;;4.60;99.90;;;;;;5025824;28;20183;-49
2023/01/26 12:31:48;;;;;;;13.83;10.03;;;;;;;;;;5028612;28;20218;-49
2023/01/26 12:34:14;;;;;;;13.43;9.03;;;;;;;;;;5029521;28;20175;-48
2023/01/26 12:36:50;;;;;;;13.47;10.17;;;4.90;99.90;;;;;;5027225;28;20175;-54
2023/01/26 12:39:36;;;;;;;14.83;10.10;;;4.90;99.90;;;;;;5022797;28;20179;-45
2023/01/26 12:42:16;;;;;;;14.03;9.77;;;4.80;99.90;;;;;;5010454;28;20267;-49
2023/01/26 12:44:50;;;;;;;13.33;9.80;;;4.80;99.90;;;;;;5023193;28;20249;-55
2023/01/26 12:47:24;;;;;;;14.07;10.33;;;4.90;99.90;;;;;;5030913;28;20296;-46
2023/01/26 12:50:10;;;;;;;15.67;9.97;;;4.80;99.90;;;;;;5031043;28;20202;-51
2023/01/26 12:52:44;;;;;;;14.50;10.20;;;4.70;99.90;;;;;;5026271;28;20559;-54
2023/01/26 12:55:25;;;;;;;15.77;11.43;;;4.70;99.90;;;;;;5031383;28;20171;-51
2023/01/26 12:58:01;;;;;;;16.30;10.73;;;4.80;99.90;;;;;;5031314;28;20200;-50
2023/01/26 13:00:34;;;;;;;15.43;10.33;;;5.00;99.90;;;;;;5013530;28;20175;-48
2023/01/26 13:03:06;;;;;;;14.53;10.37;;;4.90;99.90;;;;;;5028831;28;20556;-49
2023/01/26 13:05:34;;;;;;;12.53;9.43;;;5.00;99.90;;;;;;5020884;28;20619;-48
2023/01/26 13:08:28;;;;;;;16.67;11.17;;;5.00;99.90;;;;;;5014707;28;20235;-51
2023/01/26 13:10:54;;;;;;;13.33;9.73;;;;;;;;;;5026071;28;20285;-48
2023/01/26 13:13:20;;;;;;;13.43;9.53;;;5.10;99.90;;;;;;5029024;28;20596;-49
2023/01/26 13:15:46;;;;;;;13.97;9.60;;;;;;;;;;5029160;28;20218;-50
2023/01/26 13:18:16;;;;;;;15.73;10.37;;;5.00;99.90;;;;;;5024811;28;20199;-51
2023/01/26 13:20:45;;;;;;;12.57;9.33;;;6.50;99.90;;;;;;5030676;28;20172;-43
2023/01/26 13:23:40;;;;;;;14.20;10.33;;;5.20;99.90;;;;;;5029031;28;20704;-48
2023/01/26 13:26:14;;;;;;;13.03;9.37;;;5.30;99.90;;;;;;5028757;28;20249;-50
2023/01/26 13:28:40;;;;;;;12.43;8.73;;;5.20;99.90;;;;;;5046817;28;20198;-48
2023/01/26 13:31:07;;;;;;;13.33;9.57;;;4.90;99.90;;;;;;5030983;28;20207;-52
2023/01/26 13:33:33;;;;;;;14.13;10.23;;;;;;;;;;5034207;28;20588;-49
2023/01/26 13:36:03;;;;;;;16.20;10.00;;;5.10;99.90;;;;;;5029147;28;20267;-52
2023/01/26 13:38:40;;;;;;;13.77;9.70;;;5.20;99.90;;;;;;5023720;28;20202;-50
2023/01/26 13:41:13;;;;;;;12.67;9.27;;;;;;;;;;5045504;28;20636;-49
2023/01/26 13:44:02;;;;;;;13.53;9.10;;;;;;;;;;5022089;28;20197;-50
2023/01/26 13:46:31;;;;;;;13.00;9.03;;;;;;;;;;5044244;28;20179;-52
2023/01/26 13:48:57;;;;;;;14.53;9.83;;;;;;;;;;5037211;28;20250;-51
2023/01/26 13:51:28;;;;;;;13.90;9.63;;;5.30;99.90;;;;;;5014316;28;20669;-51
2023/01/26 13:53:57;;;;;;;13.10;9.07;;;;;;;;;;5014175;28;20580;-53
2023/01/26 13:56:30;;;;;;;14.70;9.97;;;;;;;;;;5030287;28;20194;-51
2023/01/26 13:59:26;;;;;;;13.77;9.47;;;;;;;;;;5032483;28;20595;-52
2023/01/26 14:01:53;;;;;;;12.47;9.27;;;;;;;;;;4981348;28;20193;-50
2023/01/26 14:04:30;;;;;;;13.90;9.53;;;5.00;99.90;;;;;;4990952;28;20503;-53
2023/01/26 14:07:02;;;;;;;13.03;9.83;;;;;;;;;;4991749;28;20204;-51